Time;durP1;ratioP1;P1;durP2;ratioP2;P2;SDS_P1;SDS_P2;PMS_P1;PMS_P2;Temp;Humidity;BMP_temperature;BMP_pressure;BME280_temperature;BME280_humidity;BME280_pressure;Samples;Min_cycle;Max_cycle;Signal;HPM_P1;HPM_P2
2021/03/01 00:00:22;;;;;;;14.43;11.03;;;9.70;43.80;;;;;;5090188;28;20723;-52
2021/03/01 00:02:50;;;;;;;15.10;11.60;;;9.60;43.80;;;;;;5090000;28;20654;-52
2021/03/01 00:05:17;;;;;;;13.13;11.30;;;9.60;44.00;;;;;;5090048;28;20677;-51
2021/03/01 00:07:44;;;;;;;14.53;11.30;;;9.60;44.20;;;;;;5090334;28;20673;-52
2021/03/01 00:10:11;;;;;;;11.37;10.10;;;9.60;44.20;;;;;;5090344;28;21248;-52
2021/03/01 00:12:39;;;;;;;15.03;12.13;;;9.60;44.30;;;;;;5089525;28;21109;-51
2021/03/01 00:15:06;;;;;;;13.93;12.37;;;9.70;44.40;;;;;;5089594;28;20619;-52
2021/03/01 00:17:33;;;;;;;14.00;11.10;;;9.60;44.40;;;;;;5089662;28;20680;-53
2021/03/01 00:20:00;;;;;;;12.90;10.97;;;9.60;44.50;;;;;;5090407;28;20616;-53
2021/03/01 00:22:27;;;;;;;13.10;11.30;;;9.60;44.60;;;;;;5088904;28;20646;-52
2021/03/01 00:24:53;;;;;;;12.20;10.50;;;9.50;44.70;;;;;;5089518;28;20627;-53
2021/03/01 00:27:20;;;;;;;13.40;11.03;;;9.50;44.80;;;;;;5089774;28;21021;-53
2021/03/01 00:29:48;;;;;;;12.50;11.17;;;9.40;45.00;;;;;;5089287;28;20692;-52
2021/03/01 00:32:14;;;;;;;13.47;10.40;;;9.40;45.20;;;;;;5089532;28;20620;-53
2021/03/01 00:34:41;;;;;;;13.17;10.80;;;9.40;45.40;;;;;;5075741;28;20651;-52
2021/03/01 00:37:08;;;;;;;13.90;11.37;;;9.40;45.50;;;;;;5088971;28;20647;-52
2021/03/01 00:39:34;;;;;;;13.17;11.80;;;9.40;45.50;;;;;;5088764;28;21038;-53
2021/03/01 00:42:01;;;;;;;12.47;10.30;;;9.40;45.70;;;;;;5088049;28;20704;-53
2021/03/01 00:44:28;;;;;;;11.47;10.27;;;9.30;45.70;;;;;;5089196;28;20691;-53
2021/03/01 00:46:55;;;;;;;14.00;10.83;;;9.30;45.80;;;;;;5089053;28;20654;-53
2021/03/01 00:49:22;;;;;;;12.43;10.93;;;9.30;46.00;;;;;;5091909;28;20627;-53
2021/03/01 00:51:49;;;;;;;13.37;9.93;;;9.20;46.20;;;;;;5092182;28;21144;-53
2021/03/01 00:54:15;;;;;;;13.47;10.80;;;9.20;46.30;;;;;;5092825;28;20690;-53
2021/03/01 00:56:42;;;;;;;13.53;10.07;;;9.10;46.40;;;;;;5092643;28;20666;-53
2021/03/01 00:59:09;;;;;;;11.83;10.63;;;9.10;46.50;;;;;;5093285;28;20655;-53
2021/03/01 01:01:35;;;;;;;12.00;9.40;;;9.10;46.70;;;;;;5093352;28;20615;-53
2021/03/01 01:04:04;;;;;;;12.70;11.07;;;9.10;46.70;;;;;;5092456;28;20679;-53
2021/03/01 01:06:31;;;;;;;14.07;11.70;;;9.00;46.70;;;;;;5092351;28;20635;-53
2021/03/01 01:08:57;;;;;;;10.67;9.10;;;9.00;46.90;;;;;;5092466;28;20651;-52
2021/03/01 01:11:24;;;;;;;14.50;10.17;;;9.00;46.90;;;;;;5092637;28;20653;-53
2021/03/01 01:13:51;;;;;;;13.93;11.97;;;9.00;47.00;;;;;;5092806;28;20685;-53
2021/03/01 01:16:18;;;;;;;15.60;10.70;;;9.10;47.10;;;;;;5091534;28;21200;-53
2021/03/01 01:18:44;;;;;;;12.10;10.80;;;9.00;47.20;;;;;;5092621;28;20756;-53
2021/03/01 01:21:12;;;;;;;12.03;10.43;;;9.00;47.40;;;;;;5092752;28;20627;-53
2021/03/01 01:23:39;;;;;;;11.83;10.17;;;9.00;47.50;;;;;;5092072;28;20763;-52
2021/03/01 01:26:05;;;;;;;13.73;10.93;;;9.00;47.70;;;;;;5092709;28;20658;-53
2021/03/01 01:28:32;;;;;;;13.97;10.30;;;9.00;47.90;;;;;;5092273;28;20791;-53
2021/03/01 01:30:59;;;;;;;11.67;9.73;;;8.90;47.90;;;;;;5092144;28;20619;-53
2021/03/01 01:33:25;;;;;;;12.00;9.43;;;8.90;48.10;;;;;;5092229;28;20690;-52
2021/03/01 01:35:52;;;;;;;11.63;9.03;;;8.90;48.10;;;;;;5092020;28;20631;-52
2021/03/01 01:38:21;;;;;;;12.70;9.27;;;8.90;48.30;;;;;;5092356;28;20782;-53
2021/03/01 01:40:47;;;;;;;12.63;9.63;;;8.90;48.50;;;;;;5092697;28;20618;-53
2021/03/01 01:43:14;;;;;;;14.50;10.63;;;8.90;48.60;;;;;;5092187;28;20957;-52
2021/03/01 01:45:41;;;;;;;12.63;9.40;;;8.80;48.50;;;;;;5091147;28;20668;-52
2021/03/01 01:48:08;;;;;;;13.10;10.03;;;8.80;48.50;;;;;;5091582;28;20623;-52
2021/03/01 01:50:34;;;;;;;11.37;9.53;;;8.80;48.60;;;;;;5092339;28;20626;-52
2021/03/01 01:53:01;;;;;;;14.77;10.63;;;8.80;48.80;;;;;;5091843;28;20666;-52
2021/03/01 01:55:29;;;;;;;11.97;10.17;;;8.80;48.90;;;;;;5091963;28;20994;-52
2021/03/01 01:57:55;;;;;;;11.17;8.73;;;8.70;49.00;;;;;;5091721;28;20789;-53
2021/03/01 02:00:39;;;;;;;12.23;9.70;;;8.70;49.20;;;;;;5091181;28;21208;-52
2021/03/01 02:03:10;;;;;;;12.13;9.60;;;8.60;49.30;;;;;;5092331;28;20670;-53
2021/03/01 02:05:37;;;;;;;11.40;9.40;;;8.60;49.40;;;;;;5091901;28;20619;-52
2021/03/01 02:08:07;;;;;;;13.60;10.40;;;8.60;50.00;;;;;;5091791;28;20650;-53
2021/03/01 02:10:43;;;;;;;11.00;9.27;;;8.60;49.50;;;;;;5090979;28;21613;-53
2021/03/01 02:13:14;;;;;;;14.90;10.23;;;8.50;49.50;;;;;;5091334;28;21216;-53
2021/03/01 02:15:43;;;;;;;13.70;10.83;;;8.50;49.60;;;;;;5091225;28;20662;-52
2021/03/01 02:18:10;;;;;;;11.27;10.03;;;8.40;49.70;;;;;;5091366;28;20695;-53
2021/03/01 02:20:41;;;;;;;13.37;8.83;;;8.30;49.80;;;;;;5092140;28;20650;-53
2021/03/01 02:23:10;;;;;;;14.70;10.57;;;8.40;50.00;;;;;;5091464;28;21229;-54
2021/03/01 02:25:37;;;;;;;11.27;9.87;;;8.30;50.10;;;;;;5091511;28;20650;-53
2021/03/01 02:28:06;;;;;;;13.33;9.63;;;8.30;50.20;;;;;;5087894;28;20654;-53
2021/03/01 02:30:33;;;;;;;9.97;8.77;;;8.30;50.40;;;;;;5090481;28;20671;-53
2021/03/01 02:33:03;;;;;;;14.57;10.07;;;8.20;50.40;;;;;;5091855;28;20673;-52
2021/03/01 02:35:30;;;;;;;12.63;9.63;;;8.20;50.60;;;;;;5092090;28;20669;-53
2021/03/01 02:37:57;;;;;;;11.50;8.87;;;8.20;50.70;;;;;;5090748;28;20691;-53
2021/03/01 02:40:24;;;;;;;11.40;9.37;;;8.20;50.80;;;;;;5091112;28;21031;-53
2021/03/01 02:42:51;;;;;;;11.83;8.70;;;8.20;51.00;;;;;;5090850;28;20681;-53
2021/03/01 02:45:18;;;;;;;12.50;9.77;;;8.20;51.20;;;;;;5090825;28;21152;-53
2021/03/01 02:47:44;;;;;;;13.00;9.67;;;8.10;51.30;;;;;;5089395;28;21034;-52
2021/03/01 02:50:11;;;;;;;10.00;8.63;;;8.10;51.40;;;;;;5089559;28;21073;-53
2021/03/01 02:52:38;;;;;;;14.73;10.40;;;8.10;51.50;;;;;;5090496;28;20689;-53
2021/03/01 02:55:06;;;;;;;10.37;8.90;;;8.10;51.50;;;;;;5090385;28;20621;-53
2021/03/01 02:57:33;;;;;;;10.47;9.13;;;8.10;51.70;;;;;;5089935;28;20725;-51
2021/03/01 03:00:00;;;;;;;11.10;8.13;;;8.00;51.80;;;;;;5091233;28;20645;-53
2021/03/01 03:02:26;;;;;;;12.07;9.80;;;8.00;51.90;;;;;;5090350;28;20629;-52
2021/03/01 03:04:53;;;;;;;14.77;9.83;;;8.00;52.00;;;;;;5090755;28;20670;-53
2021/03/01 03:07:20;;;;;;;10.20;9.10;;;8.00;52.20;;;;;;5090886;28;20702;-52
2021/03/01 03:09:47;;;;;;;13.40;11.10;;;8.00;52.40;;;;;;5087836;28;20775;-51
2021/03/01 03:12:14;;;;;;;14.33;10.10;;;8.00;52.50;;;;;;5089818;28;20625;-53
2021/03/01 03:14:41;;;;;;;14.73;10.70;;;8.00;52.60;;;;;;5090454;28;21205;-53
2021/03/01 03:17:08;;;;;;;13.33;9.67;;;8.00;52.80;;;;;;5089964;28;20666;-53
2021/03/01 03:19:35;;;;;;;11.70;9.63;;;8.00;52.80;;;;;;5089931;28;20665;-53
2021/03/01 03:22:02;;;;;;;13.07;10.20;;;7.90;52.90;;;;;;5089889;28;20639;-53
2021/03/01 03:24:29;;;;;;;10.10;9.10;;;7.90;53.10;;;;;;5089801;28;20722;-54
2021/03/01 03:26:55;;;;;;;22.80;10.43;;;7.80;53.20;;;;;;5090577;28;21014;-52
2021/03/01 03:29:22;;;;;;;13.63;10.47;;;7.90;53.60;;;;;;5089859;28;20626;-53
2021/03/01 03:31:50;;;;;;;11.70;9.73;;;7.80;53.60;;;;;;5090488;28;20625;-53
2021/03/01 03:34:16;;;;;;;13.63;10.20;;;7.80;53.90;;;;;;5090302;28;21053;-52
2021/03/01 03:36:44;;;;;;;13.43;9.80;;;7.70;54.10;;;;;;5089564;28;20651;-53
2021/03/01 03:39:12;;;;;;;13.80;9.93;;;7.70;54.30;;;;;;5089991;28;20942;-52
2021/03/01 03:41:38;;;;;;;13.90;10.73;;;7.70;54.50;;;;;;5089718;28;20676;-53
2021/03/01 03:44:06;;;;;;;12.60;8.37;;;7.70;54.80;;;;;;5089352;28;20660;-53
2021/03/01 03:46:33;;;;;;;10.50;8.40;;;7.70;55.00;;;;;;5089498;28;20984;-53
2021/03/01 03:49:00;;;;;;;12.87;8.90;;;7.70;55.20;;;;;;5089716;28;20892;-53
2021/03/01 03:51:27;;;;;;;16.77;9.83;;;7.70;55.50;;;;;;5090324;28;20674;-53
2021/03/01 03:53:57;;;;;;;13.53;9.10;;;7.60;55.70;;;;;;5089961;28;20657;-53
2021/03/01 03:56:26;;;;;;;12.70;8.50;;;7.60;55.90;;;;;;5089081;28;20667;-53
2021/03/01 03:58:55;;;;;;;10.00;8.13;;;7.60;56.10;;;;;;5088467;28;20726;-53
2021/03/01 04:01:22;;;;;;;10.20;8.07;;;7.60;56.20;;;;;;5090184;28;21156;-53
2021/03/01 04:03:49;;;;;;;11.33;9.23;;;7.60;56.40;;;;;;5089124;28;20980;-53
2021/03/01 04:06:18;;;;;;;10.67;8.90;;;7.50;56.30;;;;;;5089554;28;20669;-53
2021/03/01 04:08:45;;;;;;;10.17;8.17;;;7.50;56.60;;;;;;5089626;28;20655;-53
2021/03/01 04:11:12;;;;;;;10.70;8.10;;;7.50;56.80;;;;;;5089121;28;20664;-53
2021/03/01 04:13:38;;;;;;;12.60;9.47;;;7.50;57.10;;;;;;5089228;28;20713;-51
2021/03/01 04:16:06;;;;;;;12.70;9.63;;;7.40;57.10;;;;;;5088947;28;20918;-51
2021/03/01 04:18:34;;;;;;;9.73;7.47;;;7.50;57.50;;;;;;5088606;28;21259;-51
2021/03/01 04:21:02;;;;;;;13.13;9.50;;;7.40;57.60;;;;;;5088775;28;20633;-52
2021/03/01 04:23:30;;;;;;;13.17;8.97;;;7.30;57.70;;;;;;5088129;28;20661;-52
2021/03/01 04:25:57;;;;;;;12.03;9.17;;;7.30;57.90;;;;;;5088734;28;20629;-51
2021/03/01 04:28:23;;;;;;;11.00;7.50;;;7.30;58.30;;;;;;5088987;28;20690;-52
2021/03/01 04:30:50;;;;;;;9.67;7.37;;;7.20;58.50;;;;;;5089319;28;20628;-52
2021/03/01 04:33:17;;;;;;;9.23;6.27;;;7.20;58.80;;;;;;5089401;28;20648;-52
2021/03/01 04:35:44;;;;;;;11.33;7.87;;;7.20;59.10;;;;;;5089148;28;20628;-52
2021/03/01 04:38:11;;;;;;;9.57;7.30;;;7.20;59.40;;;;;;5088965;28;21015;-52
2021/03/01 04:40:38;;;;;;;11.40;8.33;;;7.20;59.70;;;;;;5088665;28;20648;-52
2021/03/01 04:43:07;;;;;;;9.80;7.37;;;7.20;59.90;;;;;;5088685;28;20722;-51
2021/03/01 04:45:34;;;;;;;11.57;7.97;;;7.20;59.90;;;;;;5088756;28;20658;-53
2021/03/01 04:48:00;;;;;;;9.73;8.00;;;7.10;60.00;;;;;;5087215;28;20617;-52
2021/03/01 04:50:27;;;;;;;11.20;8.73;;;7.10;60.40;;;;;;5088846;28;20639;-52
2021/03/01 04:52:54;;;;;;;9.60;7.50;;;7.10;60.50;;;;;;5088695;28;20648;-52
2021/03/01 04:55:21;;;;;;;8.87;7.97;;;7.10;60.70;;;;;;5078974;28;20980;-53
2021/03/01 04:57:48;;;;;;;8.53;6.83;;;7.10;60.90;;;;;;5088627;28;20628;-52
2021/03/01 05:00:16;;;;;;;12.00;8.13;;;7.10;61.30;;;;;;5089140;28;21215;-52
2021/03/01 05:02:43;;;;;;;11.10;7.50;;;7.10;61.50;;;;;;5088931;28;20900;-52
2021/03/01 05:05:11;;;;;;;8.80;7.90;;;7.20;61.60;;;;;;5088671;28;21130;-51
2021/03/01 05:07:37;;;;;;;10.80;8.80;;;7.10;61.50;;;;;;5088264;28;21010;-52
2021/03/01 05:10:08;;;;;;;10.60;8.17;;;7.10;61.40;;;;;;5086970;28;20636;-52
2021/03/01 05:12:34;;;;;;;10.67;8.13;;;7.10;61.50;;;;;;5087578;28;20717;-52
2021/03/01 05:15:02;;;;;;;15.53;11.30;;;7.00;61.40;;;;;;5088599;28;21188;-52
2021/03/01 05:17:29;;;;;;;10.87;7.83;;;7.00;61.70;;;;;;5088479;28;20677;-52
2021/03/01 05:19:56;;;;;;;12.50;10.00;;;6.90;61.80;;;;;;5088127;28;20656;-52
2021/03/01 05:22:22;;;;;;;13.40;9.50;;;6.90;62.10;;;;;;5088410;28;20747;-52
2021/03/01 05:24:49;;;;;;;14.03;10.10;;;6.90;62.50;;;;;;5088248;28;20630;-52
2021/03/01 05:27:16;;;;;;;11.33;8.40;;;6.80;62.40;;;;;;5088522;28;20988;-51
2021/03/01 05:29:42;;;;;;;14.07;10.10;;;6.80;62.70;;;;;;5088797;28;20953;-51
2021/03/01 05:32:10;;;;;;;11.33;8.93;;;6.80;63.00;;;;;;5089205;28;20736;-52
2021/03/01 05:34:37;;;;;;;10.77;9.57;;;6.70;63.10;;;;;;5088261;28;20673;-50
2021/03/01 05:37:04;;;;;;;13.50;11.07;;;6.70;63.20;;;;;;5093155;28;21195;-50
2021/03/01 05:39:30;;;;;;;15.47;10.30;;;6.70;63.10;;;;;;5091616;28;20733;-51
2021/03/01 05:41:57;;;;;;;16.67;11.27;;;6.70;63.20;;;;;;5092077;28;20628;-51
2021/03/01 05:44:24;;;;;;;12.27;10.30;;;6.60;63.60;;;;;;5091231;28;20664;-50
2021/03/01 05:46:50;;;;;;;11.10;9.30;;;6.60;64.50;;;;;;5092332;28;20631;-51
2021/03/01 05:49:18;;;;;;;9.80;8.73;;;6.60;64.70;;;;;;5092242;28;20677;-50
2021/03/01 05:51:49;;;;;;;16.00;11.00;;;6.60;64.40;;;;;;5091876;28;20632;-51
2021/03/01 05:54:16;;;;;;;14.77;9.83;;;6.60;64.60;;;;;;5091581;28;20653;-50
2021/03/01 05:56:42;;;;;;;18.57;11.73;;;6.60;65.00;;;;;;5091831;28;20632;-50
2021/03/01 05:59:09;;;;;;;18.60;11.80;;;6.50;64.90;;;;;;5070000;28;20649;-50
2021/03/01 06:01:36;;;;;;;22.63;12.03;;;6.60;65.20;;;;;;5083410;28;21234;-51
2021/03/01 06:04:05;;;;;;;13.77;11.27;;;6.60;65.20;;;;;;5091572;28;20969;-51
2021/03/01 06:06:32;;;;;;;15.03;10.73;;;6.50;65.10;;;;;;5091343;28;20631;-51
2021/03/01 06:08:59;;;;;;;16.07;11.93;;;6.50;65.20;;;;;;5090447;28;20685;-50
2021/03/01 06:11:26;;;;;;;14.63;10.97;;;6.40;65.30;;;;;;5084399;28;21159;-51
2021/03/01 06:13:52;;;;;;;13.50;10.73;;;6.40;65.40;;;;;;5091098;28;20659;-52
2021/03/01 06:16:19;;;;;;;17.83;11.60;;;6.50;65.50;;;;;;5091278;28;20620;-53
2021/03/01 06:18:46;;;;;;;14.87;11.70;;;6.50;65.30;;;;;;5090840;28;20680;-52
2021/03/01 06:21:14;;;;;;;19.10;12.53;;;6.50;65.00;;;;;;5091157;28;21122;-52
2021/03/01 06:23:42;;;;;;;12.67;10.27;;;6.50;65.20;;;;;;5089919;28;21236;-51
2021/03/01 06:26:26;;;;;;;17.33;12.23;;;6.40;65.10;;;;;;5090074;28;20706;-51
2021/03/01 06:28:54;;;;;;;13.37;9.53;;;6.40;65.50;;;;;;5091020;28;20657;-53
2021/03/01 06:31:42;;;;;;;16.13;12.13;;;6.30;65.50;;;;;;5091229;28;20977;-53
2021/03/01 06:34:19;;;;;;;14.00;10.90;;;6.30;65.80;;;;;;5086296;28;20652;-53
2021/03/01 06:36:56;;;;;;;18.13;12.43;;;6.30;66.20;;;;;;5088379;28;20673;-51
2021/03/01 06:39:28;;;;;;;16.40;11.70;;;6.30;66.40;;;;;;5082934;28;20656;-53
2021/03/01 06:41:55;;;;;;;15.57;11.30;;;6.40;66.60;;;;;;5087053;28;20636;-53
2021/03/01 06:44:22;;;;;;;14.43;11.20;;;6.40;66.80;;;;;;5079047;28;21197;-53
2021/03/01 06:46:52;;;;;;;15.13;11.83;;;6.30;67.10;;;;;;5090388;28;21182;-52
2021/03/01 06:49:19;;;;;;;14.17;10.63;;;6.30;67.50;;;;;;5079341;28;20632;-52
2021/03/01 06:51:46;;;;;;;15.73;11.33;;;6.30;67.60;;;;;;5074644;28;20629;-52
2021/03/01 06:54:13;;;;;;;15.27;10.60;;;6.40;68.20;;;;;;5090777;28;20717;-54
2021/03/01 06:56:41;;;;;;;12.67;10.27;;;6.30;68.60;;;;;;5089987;28;20709;-53
2021/03/01 06:59:12;;;;;;;16.50;11.00;;;6.40;68.90;;;;;;5090151;28;20645;-54
2021/03/01 07:01:46;;;;;;;20.20;16.70;;;6.40;68.90;;;;;;5090531;28;20623;-53
2021/03/01 07:04:18;;;;;;;20.90;13.90;;;6.50;69.00;;;;;;5089885;28;20657;-53
2021/03/01 07:06:45;;;;;;;11.27;10.17;;;6.50;68.80;;;;;;5089436;28;20984;-52
2021/03/01 07:09:13;;;;;;;12.10;10.27;;;6.60;68.70;;;;;;5089563;28;20756;-52
2021/03/01 07:11:41;;;;;;;14.27;10.67;;;6.60;68.50;;;;;;5086729;28;20746;-53
2021/03/01 07:14:09;;;;;;;16.20;9.73;;;6.60;68.70;;;;;;5086034;28;20816;-53
2021/03/01 07:16:36;;;;;;;15.10;11.57;;;6.70;68.50;;;;;;5094401;28;20666;-53
2021/03/01 07:19:04;;;;;;;13.50;9.97;;;6.70;68.50;;;;;;5098017;28;20710;-53
2021/03/01 07:21:31;;;;;;;15.20;10.27;;;6.80;68.30;;;;;;5086503;28;20735;-53
2021/03/01 07:23:58;;;;;;;15.73;10.57;;;6.80;68.30;;;;;;5083409;28;21109;-52
2021/03/01 07:26:25;;;;;;;13.53;11.13;;;6.80;68.50;;;;;;5082659;28;21050;-54
2021/03/01 07:28:53;;;;;;;12.00;9.83;;;7.00;69.60;;;;;;5087461;28;20981;-54
2021/03/01 07:31:21;;;;;;;14.40;10.07;;;7.30;69.50;;;;;;5083874;28;20919;-52
2021/03/01 07:33:48;;;;;;;11.47;9.37;;;7.50;68.00;;;;;;5088570;28;20690;-53
2021/03/01 07:36:15;;;;;;;13.37;11.53;;;7.60;66.90;;;;;;5096489;28;21216;-54
2021/03/01 07:38:42;;;;;;;12.73;9.37;;;7.80;66.40;;;;;;5098245;28;20749;-53
2021/03/01 07:41:08;;;;;;;14.17;9.70;;;8.10;65.80;;;;;;5094791;28;20787;-54
2021/03/01 07:43:36;;;;;;;14.10;10.30;;;8.40;63.80;;;;;;5099450;28;20657;-54
2021/03/01 07:46:04;;;;;;;12.27;10.70;;;8.70;62.50;;;;;;5089552;28;20984;-53
2021/03/01 07:48:35;;;;;;;18.33;10.80;;;8.80;60.00;;;;;;5085026;28;20650;-54
2021/03/01 07:51:02;;;;;;;16.27;9.40;;;8.90;59.50;;;;;;5095441;28;20677;-53
2021/03/01 07:53:51;;;;;;;11.90;9.13;;;8.90;59.30;;;;;;5099643;28;20730;-52
2021/03/01 07:56:51;;;;;;;12.17;8.63;;;8.90;59.50;;;;;;5090432;28;20625;-51
2021/03/01 07:59:29;;;;;;;10.50;7.87;;;8.90;59.70;;;;;;5082518;28;20695;-52
2021/03/01 08:02:17;;;;;;;11.13;8.17;;;8.90;59.90;;;;;;5084987;28;20623;-52
2021/03/01 08:04:44;;;;;;;14.03;8.57;;;8.90;60.00;;;;;;5085729;28;20624;-52
2021/03/01 08:07:10;;;;;;;10.80;8.07;;;8.90;60.40;;;;;;5083616;28;20686;-52
2021/03/01 08:09:47;;;;;;;9.67;7.63;;;8.90;60.50;;;;;;5093160;28;20620;-52
2021/03/01 08:12:47;;;;;;;10.03;7.37;;;8.90;60.90;;;;;;5095422;28;21020;-53
2021/03/01 08:15:21;;;;;;;10.70;7.57;;;9.00;61.10;;;;;;5077599;28;20633;-54
2021/03/01 08:17:50;;;;;;;8.97;7.80;;;9.10;60.70;;;;;;5080063;28;20670;-53
2021/03/01 08:20:28;;;;;;;8.13;7.33;;;9.30;60.20;;;;;;5085807;28;20702;-52
2021/03/01 08:23:30;;;;;;;9.83;8.50;;;9.40;59.90;;;;;;5067534;28;20729;-52
2021/03/01 08:26:02;;;;;;;11.60;8.93;;;9.60;59.70;;;;;;5085627;28;20681;-53
2021/03/01 08:28:50;;;;;;;7.90;7.07;;;9.90;59.10;;;;;;5078828;28;20919;-53
2021/03/01 08:31:28;;;;;;;8.73;7.13;;;10.20;57.90;;;;;;5073368;28;20628;-53
2021/03/01 08:34:10;;;;;;;11.53;8.93;;;10.50;57.60;;;;;;5084855;28;20647;-53
2021/03/01 08:36:43;;;;;;;9.77;7.70;;;10.80;57.00;;;;;;5080574;28;20826;-54
2021/03/01 08:39:09;;;;;;;8.33;7.40;;;11.10;55.80;;;;;;5088810;28;20649;-52
2021/03/01 08:41:43;;;;;;;11.30;9.03;;;11.30;54.40;;;;;;5072782;28;20667;-53
2021/03/01 08:44:20;;;;;;;9.20;8.27;;;11.30;53.90;;;;;;5088392;28;20703;-54
2021/03/01 08:46:48;;;;;;;10.30;8.37;;;11.30;53.80;;;;;;5087818;28;20632;-54
2021/03/01 08:49:25;;;;;;;10.63;8.27;;;11.20;53.80;;;;;;5088903;28;20669;-51
2021/03/01 08:51:52;;;;;;;14.27;9.07;;;11.20;54.00;;;;;;5095314;28;20663;-52
2021/03/01 08:54:28;;;;;;;9.30;8.40;;;11.20;53.80;;;;;;5099094;28;20656;-54
2021/03/01 08:57:04;;;;;;;9.07;7.80;;;11.20;53.80;;;;;;5085079;28;20684;-54
2021/03/01 08:59:32;;;;;;;10.13;7.90;;;11.10;53.60;;;;;;5088324;28;20687;-54
2021/03/01 09:01:58;;;;;;;15.13;10.20;;;11.00;53.70;;;;;;5084678;28;20677;-53
2021/03/01 09:04:26;;;;;;;11.17;8.50;;;10.90;54.00;;;;;;5094293;28;21209;-53
2021/03/01 09:06:53;;;;;;;12.27;9.80;;;10.90;54.30;;;;;;5092631;28;20668;-52
2021/03/01 09:09:20;;;;;;;10.40;8.90;;;10.80;54.50;;;;;;5079675;28;21153;-55
2021/03/01 09:11:46;;;;;;;11.10;9.97;;;10.70;54.80;;;;;;5089704;28;20760;-53
2021/03/01 09:14:13;;;;;;;12.47;9.80;;;10.70;55.00;;;;;;5094272;28;20668;-56
2021/03/01 09:16:42;;;;;;;12.70;9.90;;;10.60;54.90;;;;;;5082952;28;21243;-52
2021/03/01 09:19:10;;;;;;;12.10;9.80;;;10.60;55.30;;;;;;5083372;28;20720;-52
2021/03/01 09:21:40;;;;;;;12.47;9.43;;;10.60;55.80;;;;;;5093044;28;20624;-54
2021/03/01 09:24:07;;;;;;;11.33;9.17;;;10.60;55.40;;;;;;5097073;28;20678;-53
2021/03/01 09:26:35;;;;;;;16.33;10.90;;;10.60;55.60;;;;;;5097947;28;20622;-53
2021/03/01 09:29:05;;;;;;;17.50;12.07;;;10.60;55.40;;;;;;5092199;28;20628;-51
2021/03/01 09:31:35;;;;;;;11.37;9.73;;;10.70;55.80;;;;;;5091364;28;21044;-54
2021/03/01 09:34:02;;;;;;;11.53;10.00;;;10.80;55.70;;;;;;5082520;28;20804;-52
2021/03/01 09:36:29;;;;;;;11.30;9.70;;;10.90;55.80;;;;;;5086621;28;20671;-53
2021/03/01 09:38:57;;;;;;;13.30;10.63;;;10.90;55.30;;;;;;5099576;28;20670;-52
2021/03/01 09:41:24;;;;;;;12.13;9.63;;;11.00;55.30;;;;;;5081583;28;20691;-53
2021/03/01 09:43:51;;;;;;;19.90;11.53;;;11.00;54.80;;;;;;5102394;28;21061;-51
2021/03/01 09:46:18;;;;;;;14.50;11.60;;;11.10;54.70;;;;;;5080876;28;21059;-53
2021/03/01 09:48:45;;;;;;;15.30;11.40;;;11.20;54.70;;;;;;5085335;28;20659;-51
2021/03/01 09:51:12;;;;;;;11.80;10.17;;;11.30;54.10;;;;;;5102099;28;20648;-52
2021/03/01 09:53:39;;;;;;;13.23;11.87;;;11.50;54.20;;;;;;5097087;28;20666;-51
2021/03/01 09:56:06;;;;;;;10.30;8.70;;;11.70;53.90;;;;;;5094271;28;20688;-54
2021/03/01 09:58:34;;;;;;;15.57;11.23;;;11.90;53.50;;;;;;5085916;28;20666;-54
2021/03/01 10:01:08;;;;;;;13.60;10.53;;;12.10;52.60;;;;;;5090935;27;20698;-52
2021/03/01 10:03:35;;;;;;;11.70;9.27;;;12.20;52.20;;;;;;5101506;28;20671;-52
2021/03/01 10:06:02;;;;;;;18.80;13.07;;;12.30;51.70;;;;;;5079810;28;20723;-53
2021/03/01 10:08:29;;;;;;;14.37;10.87;;;12.20;51.70;;;;;;5091334;28;20765;-54
2021/03/01 10:10:56;;;;;;;12.40;11.03;;;12.30;52.00;;;;;;5092851;28;20648;-53
2021/03/01 10:13:27;;;;;;;13.23;11.30;;;12.30;52.00;;;;;;5086738;28;21005;-52
2021/03/01 10:15:54;;;;;;;10.73;9.60;;;12.50;52.00;;;;;;5101462;28;21172;-53
2021/03/01 10:18:22;;;;;;;13.27;10.90;;;12.80;51.50;;;;;;5086216;28;20657;-52
2021/03/01 10:20:54;;;;;;;11.20;9.97;;;13.00;50.90;;;;;;5100118;28;20696;-52
2021/03/01 10:23:37;;;;;;;13.23;11.07;;;13.20;50.10;;;;;;5105393;28;20667;-52
2021/03/01 10:26:05;;;;;;;11.40;10.30;;;13.40;49.70;;;;;;5093926;28;21078;-53
2021/03/01 10:28:34;;;;;;;11.13;9.57;;;13.80;48.40;;;;;;5091945;28;20628;-52
2021/03/01 10:31:02;;;;;;;15.07;11.50;;;14.10;47.40;;;;;;5095027;28;20648;-53
2021/03/01 10:33:29;;;;;;;13.07;11.90;;;14.20;46.80;;;;;;5104179;28;20698;-53
2021/03/01 10:36:09;;;;;;;15.40;13.80;;;14.50;46.10;;;;;;5090832;28;20648;-52
2021/03/01 10:39:01;;;;;;;11.60;10.50;;;15.10;44.80;;;;;;5089486;28;20748;-51
2021/03/01 10:41:29;;;;;;;14.30;13.00;;;15.60;43.60;;;;;;5087543;28;20683;-53
2021/03/01 10:43:58;;;;;;;12.50;11.27;;;15.80;42.70;;;;;;5089332;28;20704;-52
2021/03/01 10:46:36;;;;;;;14.40;13.10;;;16.10;42.30;;;;;;5086199;28;21274;-52
2021/03/01 10:49:04;;;;;;;14.33;12.93;;;16.30;41.70;;;;;;5088420;28;21368;-52
2021/03/01 10:51:31;;;;;;;13.30;12.17;;;16.40;41.10;;;;;;5092469;28;20648;-52
2021/03/01 10:53:57;;;;;;;13.13;11.97;;;16.30;40.00;;;;;;5096387;27;20719;-53
2021/03/01 10:56:24;;;;;;;12.47;11.17;;;16.30;40.10;;;;;;5095500;28;20651;-53
2021/03/01 10:58:51;;;;;;;12.77;11.30;;;16.20;39.70;;;;;;5107545;28;20737;-52
2021/03/01 11:01:18;;;;;;;17.53;15.87;;;16.00;39.40;;;;;;5095071;27;20684;-52
2021/03/01 11:03:45;;;;;;;14.03;12.73;;;15.90;39.20;;;;;;5090614;28;20652;-53
2021/03/01 11:06:13;;;;;;;13.33;11.93;;;15.90;39.30;;;;;;5095770;28;20670;-52
2021/03/01 11:08:40;;;;;;;15.33;14.03;;;16.10;38.90;;;;;;5098737;28;21073;-52
2021/03/01 11:11:07;;;;;;;11.40;10.20;;;16.40;38.60;;;;;;5090704;28;20620;-52
2021/03/01 11:13:34;;;;;;;11.93;9.77;;;16.60;38.00;;;;;;5091882;28;20687;-51
2021/03/01 11:16:01;;;;;;;16.37;9.13;;;16.70;37.60;;;;;;5091480;28;21184;-51
2021/03/01 11:18:28;;;;;;;11.13;10.13;;;16.50;37.20;;;;;;5090463;28;21157;-52
2021/03/01 11:20:55;;;;;;;16.87;15.40;;;16.20;37.00;;;;;;5084000;28;20687;-52
2021/03/01 11:23:22;;;;;;;18.93;17.63;;;16.10;37.80;;;;;;5087788;28;20722;-51
2021/03/01 11:25:48;;;;;;;10.90;10.00;;;16.30;37.80;;;;;;5104022;28;20655;-52
2021/03/01 11:28:15;;;;;;;13.80;10.73;;;16.80;37.10;;;;;;5084637;28;20632;-52
2021/03/01 11:30:42;;;;;;;15.80;14.50;;;16.90;36.80;;;;;;5097161;28;20656;-52
2021/03/01 11:33:09;;;;;;;20.93;19.53;;;17.00;36.50;;;;;;5096319;28;20816;-52
2021/03/01 11:35:36;;;;;;;16.63;15.23;;;17.40;36.30;;;;;;5090805;28;20675;-52
2021/03/01 11:38:03;;;;;;;13.00;11.90;;;18.10;36.00;;;;;;5090012;28;20768;-52
2021/03/01 11:40:30;;;;;;;12.00;10.90;;;18.90;34.20;;;;;;5099462;28;20692;-53
2021/03/01 11:42:57;;;;;;;12.37;10.83;;;19.30;33.00;;;;;;5092261;28;20684;-52
2021/03/01 11:45:23;;;;;;;11.03;9.93;;;19.30;32.60;;;;;;5092148;28;20674;-52
2021/03/01 11:47:50;;;;;;;14.13;12.67;;;19.20;32.30;;;;;;5099195;28;20662;-52
2021/03/01 11:50:17;;;;;;;11.83;10.57;;;19.10;32.30;;;;;;5090385;28;20980;-52
2021/03/01 11:52:45;;;;;;;12.20;10.90;;;19.00;32.40;;;;;;5096314;28;20698;-52
2021/03/01 11:55:12;;;;;;;12.03;11.03;;;19.10;32.50;;;;;;5077680;28;20656;-53
2021/03/01 11:57:39;;;;;;;14.50;11.20;;;19.60;31.90;;;;;;5088876;28;20656;-53
2021/03/01 12:00:07;;;;;;;12.87;11.63;;;19.70;31.80;;;;;;5086572;28;20707;-52
2021/03/01 12:02:33;;;;;;;12.83;11.63;;;20.00;31.80;;;;;;5080385;28;20676;-53
2021/03/01 12:05:00;;;;;;;11.77;10.70;;;19.30;32.60;;;;;;5090679;28;20675;-53
2021/03/01 12:07:27;;;;;;;11.80;10.43;;;19.50;32.50;;;;;;5089454;28;20652;-52
2021/03/01 12:09:54;;;;;;;12.20;11.00;;;19.70;31.90;;;;;;5094123;28;21013;-52
2021/03/01 12:12:21;;;;;;;13.70;11.30;;;19.20;31.90;;;;;;5085008;28;20664;-54
2021/03/01 12:14:48;;;;;;;11.70;10.70;;;19.10;32.70;;;;;;5085964;28;21234;-51
2021/03/01 12:17:15;;;;;;;11.50;10.30;;;21.10;32.20;;;;;;5101529;28;20627;-52
2021/03/01 12:19:42;;;;;;;13.47;10.90;;;22.30;30.70;;;;;;5099329;28;20691;-52
2021/03/01 12:22:10;;;;;;;11.67;10.47;;;22.00;29.60;;;;;;5081573;28;20652;-52
2021/03/01 12:24:37;;;;;;;12.53;10.93;;;22.00;30.00;;;;;;5076012;28;20657;-54
2021/03/01 12:27:04;;;;;;;12.30;11.07;;;22.60;29.70;;;;;;5093099;28;20619;-52
2021/03/01 12:29:31;;;;;;;12.60;11.30;;;22.10;29.20;;;;;;5098649;28;20660;-53
2021/03/01 12:31:58;;;;;;;10.37;9.40;;;21.30;29.70;;;;;;5096385;28;20632;-52
2021/03/01 12:34:24;;;;;;;11.90;10.67;;;20.60;29.80;;;;;;5090115;28;20648;-52
2021/03/01 12:36:51;;;;;;;12.13;11.13;;;20.50;30.40;;;;;;5090583;28;20660;-52
2021/03/01 12:39:18;;;;;;;10.90;9.80;;;21.10;30.00;;;;;;5086580;28;20669;-53
2021/03/01 12:41:45;;;;;;;9.87;8.90;;;21.30;29.90;;;;;;5083962;28;20810;-52
2021/03/01 12:44:12;;;;;;;11.57;10.47;;;21.70;29.80;;;;;;5101841;28;20686;-53